Time;durP1;ratioP1;P1;durP2;ratioP2;P2;SDS_P1;SDS_P2;PMS_P1;PMS_P2;Temp;Humidity;BMP_temperature;BMP_pressure;BME280_temperature;BME280_humidity;BME280_pressure;Samples;Min_cycle;Max_cycle;Signal;HPM_P1;HPM_P2
2021/10/21 00:00:59;;;;;;;5.35;2.20;;;;;;;13.44;100.00;98932.25;5196682;28;20493;-76
2021/10/21 00:03:30;;;;;;;8.23;1.85;;;;;;;13.40;100.00;98931.06;5198366;28;20036;-77
2021/10/21 00:06:01;;;;;;;3.80;1.17;;;;;;;13.41;100.00;98925.47;5159752;28;20034;-76
2021/10/21 00:08:32;;;;;;;4.50;1.60;;;;;;;13.45;100.00;98925.81;5192674;28;20025;-75
2021/10/21 00:11:02;;;;;;;4.82;1.27;;;;;;;13.43;100.00;98934.13;5179768;28;20068;-76
2021/10/21 00:13:33;;;;;;;4.60;1.67;;;;;;;13.40;100.00;98931.06;5197760;28;20029;-76
2021/10/21 00:16:04;;;;;;;4.05;1.02;;;;;;;13.42;100.00;98926.28;5197641;28;20029;-77
2021/10/21 00:18:35;;;;;;;2.95;1.20;;;;;;;13.43;100.00;98936.81;5197625;28;20359;-75
2021/10/21 00:21:05;;;;;;;7.07;1.23;;;;;;;13.47;100.00;98929.94;5196927;28;20536;-75
2021/10/21 00:23:36;;;;;;;2.92;0.98;;;;;;;13.58;100.00;98939.06;5179941;28;20021;-75
2021/10/21 00:26:07;;;;;;;1.77;1.08;;;;;;;13.56;100.00;98919.63;5197559;28;20120;-75
2021/10/21 00:28:37;;;;;;;2.75;0.85;;;;;;;13.47;100.00;98935.31;5197467;28;20030;-76
2021/10/21 00:31:08;;;;;;;1.80;1.00;;;;;;;13.44;100.00;98964.56;5197405;28;20018;-75
2021/10/21 00:33:38;;;;;;;4.60;0.68;;;;;;;13.38;100.00;98958.25;5197317;28;20033;-75
2021/10/21 00:36:09;;;;;;;8.52;1.10;;;;;;;13.27;100.00;98945.56;5197536;28;20033;-75
2021/10/21 00:38:39;;;;;;;5.03;0.82;;;;;;;13.11;100.00;98947.00;5180099;28;20026;-76
2021/10/21 00:41:10;;;;;;;7.18;0.75;;;;;;;13.08;100.00;98960.09;5179021;28;20095;-75
2021/10/21 00:43:42;;;;;;;5.68;0.95;;;;;;;13.04;100.00;98967.81;5184899;28;20033;-76
2021/10/21 00:46:13;;;;;;;6.07;1.83;;;;;;;13.06;100.00;98971.09;5196045;28;20014;-76
2021/10/21 00:48:43;;;;;;;4.55;0.98;;;;;;;12.95;100.00;98990.69;5197123;28;20025;-75
2021/10/21 00:51:15;;;;;;;4.82;0.85;;;;;;;12.79;100.00;98969.78;5196820;28;20047;-75
2021/10/21 00:53:45;;;;;;;5.15;0.70;;;;;;;12.62;100.00;98964.22;5199539;28;20385;-76
2021/10/21 00:56:18;;;;;;;3.30;0.45;;;;;;;12.56;100.00;98940.91;5200727;28;20021;-76
2021/10/21 00:58:50;;;;;;;3.60;0.82;;;;;;;12.53;100.00;98949.41;5201062;28;20029;-74
2021/10/21 01:01:22;;;;;;;4.47;0.75;;;;;;;12.53;100.00;98914.44;5200094;28;20022;-76
2021/10/21 01:03:52;;;;;;;5.53;0.90;;;;;;;12.52;100.00;98929.78;5201573;28;20021;-75
2021/10/21 01:06:23;;;;;;;8.77;1.15;;;;;;;12.40;100.00;98931.59;5200908;28;20036;-75
2021/10/21 01:08:54;;;;;;;7.70;0.73;;;;;;;12.32;100.00;98926.50;5200538;28;20048;-75
2021/10/21 01:11:24;;;;;;;3.80;0.70;;;;;;;12.36;100.00;98928.50;5201044;28;20025;-75
2021/10/21 01:13:55;;;;;;;5.38;0.60;;;;;;;12.47;100.00;98940.38;5200839;28;20516;-75
2021/10/21 01:16:25;;;;;;;6.82;0.50;;;;;;;12.47;100.00;98945.75;5182926;28;20397;-75
2021/10/21 01:18:56;;;;;;;8.25;0.85;;;;;;;12.32;100.00;98926.50;5183162;28;20028;-76
2021/10/21 01:21:26;;;;;;;5.35;1.30;;;;;;;12.05;100.00;98924.09;5200155;28;20461;-76
2021/10/21 01:23:57;;;;;;;5.43;1.40;;;;;;;11.86;100.00;98919.75;5200868;28;20033;-75
2021/10/21 01:26:28;;;;;;;10.88;1.30;;;;;;;11.79;100.00;98902.81;5200302;28;20025;-75
2021/10/21 01:28:58;;;;;;;7.88;0.82;;;;;;;11.70;100.00;98906.81;5200176;28;20038;-75
2021/10/21 01:31:29;;;;;;;5.70;1.08;;;;;;;11.66;100.00;98915.34;5200549;28;20120;-75
2021/10/21 01:33:59;;;;;;;4.30;0.90;;;;;;;11.67;100.00;98908.09;5182738;28;20029;-75
2021/10/21 01:36:29;;;;;;;7.38;1.00;;;;;;;11.62;100.00;98902.56;5200370;28;20687;-75
2021/10/21 01:39:03;;;;;;;4.93;0.80;;;;;;;11.62;100.00;98899.88;5182637;28;20025;-75
2021/10/21 01:41:34;;;;;;;3.28;0.80;;;;;;;11.62;100.00;98899.88;5200169;28;20029;-76
2021/10/21 01:44:05;;;;;;;8.93;1.27;;;;;;;11.70;100.00;98906.81;5169516;28;20049;-75
2021/10/21 01:46:40;;;;;;;3.38;1.20;;;;;;;11.73;100.00;98898.31;5200351;28;20022;-76
2021/10/21 01:49:11;;;;;;;5.50;1.10;;;;;;;11.77;100.00;98907.59;5200043;28;20028;-75
2021/10/21 01:51:41;;;;;;;6.50;1.40;;;;;;;11.71;100.00;98887.00;5200623;28;20022;-76
2021/10/21 01:54:12;;;;;;;5.53;1.42;;;;;;;11.64;100.00;98892.41;5200110;28;20025;-75
2021/10/21 01:56:43;;;;;;;8.13;1.42;;;;;;;11.61;100.00;98860.63;5199722;28;20061;-76
2021/10/21 01:59:13;;;;;;;10.35;1.80;;;;;;;11.47;100.00;98859.13;5199821;28;20029;-75
2021/10/21 02:01:44;;;;;;;10.80;1.50;;;;;;;11.35;100.00;98878.63;5199721;28;20210;-75
2021/10/21 02:04:15;;;;;;;14.02;2.05;;;;;;;11.24;100.00;98865.06;5182700;28;20409;-75
2021/10/21 02:06:45;;;;;;;6.70;1.60;;;;;;;11.15;100.00;98856.50;5199812;28;20745;-75
2021/10/21 02:09:16;;;;;;;11.20;1.65;;;;;;;11.17;100.00;98850.91;5181898;28;20038;-75
2021/10/21 02:11:46;;;;;;;9.57;1.25;;;;;;;11.10;100.00;98853.63;5165944;28;20071;-75
2021/10/21 02:14:17;;;;;;;13.82;1.85;;;;;;;11.05;100.00;98862.34;5216359;28;20025;-75
2021/10/21 02:16:48;;;;;;;6.80;1.23;;;;;;;10.98;100.00;98842.78;5261165;23;20064;-75
2021/10/21 02:19:18;;;;;;;11.32;2.65;;;;;;;10.94;100.00;98838.06;5219802;28;20112;-75
2021/10/21 02:21:49;;;;;;;12.85;1.67;;;;;;;10.88;100.00;98823.66;5198850;28;20119;-75
2021/10/21 02:24:19;;;;;;;13.30;1.73;;;;;;;10.88;100.00;98824.47;5213275;28;20023;-76
2021/10/21 02:26:50;;;;;;;10.10;1.52;;;;;;;10.93;100.00;98820.31;5203611;28;20025;-76
2021/10/21 02:29:20;;;;;;;7.68;1.20;;;;;;;10.95;100.00;98824.44;5179526;28;20101;-75
2021/10/21 02:31:51;;;;;;;12.55;1.23;;;;;;;11.00;100.00;98816.56;5200538;28;20496;-76
2021/10/21 02:34:21;;;;;;;6.85;1.50;;;;;;;11.03;100.00;98805.38;5200551;28;20434;-76
2021/10/21 02:36:52;;;;;;;10.02;1.55;;;;;;;11.00;100.00;98810.38;5201057;28;20332;-77
2021/10/21 02:39:23;;;;;;;9.55;1.33;;;;;;;10.93;100.00;98804.22;5199061;28;20061;-76
2021/10/21 02:41:54;;;;;;;7.82;1.58;;;;;;;10.86;100.00;98796.22;5200657;28;20110;-76
2021/10/21 02:44:25;;;;;;;22.15;1.67;;;;;;;10.78;100.00;98801.84;5200185;28;20506;-77
2021/10/21 02:46:55;;;;;;;12.60;1.58;;;;;;;10.77;100.00;98797.53;5201239;28;20561;-77
2021/10/21 02:49:26;;;;;;;7.55;1.73;;;;;;;10.73;100.00;98790.97;5199749;28;20100;-76
2021/10/21 02:51:57;;;;;;;9.30;1.40;;;;;;;10.71;100.00;98774.28;5215403;28;20329;-76
2021/10/21 02:54:28;;;;;;;15.00;1.70;;;;;;;10.74;100.00;98800.63;5199346;28;20449;-75
2021/10/21 02:56:58;;;;;;;6.15;1.38;;;;;;;10.73;100.00;98788.28;5199594;28;20068;-77
2021/10/21 02:59:29;;;;;;;8.57;1.60;;;;;;;10.72;100.00;98776.72;5214613;28;20072;-73
2021/10/21 03:02:01;;;;;;;10.30;1.40;;;;;;;10.76;100.00;98780.63;5198602;28;20499;-74
2021/10/21 03:04:32;;;;;;;10.30;1.42;;;;;;;10.82;100.00;98781.59;5199997;28;20114;-73
2021/10/21 03:07:03;;;;;;;9.43;1.60;;;;;;;10.83;100.00;98789.44;5199523;28;20495;-74
2021/10/21 03:09:33;;;;;;;7.45;1.60;;;;;;;10.88;100.00;98781.56;5199596;28;20021;-74
2021/10/21 03:12:04;;;;;;;15.07;1.98;;;;;;;10.85;100.00;98784.69;5199719;28;20072;-73
2021/10/21 03:14:34;;;;;;;8.70;1.60;;;;;;;10.82;100.00;98766.34;5199814;28;20505;-73
2021/10/21 03:17:05;;;;;;;8.25;1.23;;;;;;;10.83;100.00;98767.16;5199497;28;20032;-74
2021/10/21 03:19:35;;;;;;;9.75;1.90;;;;;;;10.81;100.00;98769.25;5198869;28;20036;-74
2021/10/21 03:22:06;;;;;;;9.68;1.30;;;;;;;10.81;100.00;98764.69;5199309;28;20112;-73
2021/10/21 03:24:37;;;;;;;7.25;1.70;;;;;;;10.84;100.00;98756.22;5199084;28;20017;-73
2021/10/21 03:27:08;;;;;;;4.18;1.20;;;;;;;10.88;100.00;98770.00;5199803;28;20138;-74
2021/10/21 03:29:38;;;;;;;7.70;0.70;;;;;;;10.92;100.00;98779.25;5198528;28;20049;-74
2021/10/21 03:32:09;;;;;;;5.28;0.70;;;;;;;10.96;100.00;98772.41;5199256;28;20028;-74
2021/10/21 03:34:40;;;;;;;2.35;0.98;;;;;;;10.97;100.00;98779.44;5198615;28;20151;-74
2021/10/21 03:37:10;;;;;;;3.60;0.60;;;;;;;10.96;100.00;98780.47;5199246;28;20028;-73
2021/10/21 03:39:42;;;;;;;5.95;0.68;;;;;;;10.92;100.00;98781.94;5198606;28;20144;-74
2021/10/21 03:42:12;;;;;;;1.45;0.60;;;;;;;10.95;100.00;98794.13;5199056;28;20104;-74
2021/10/21 03:44:43;;;;;;;2.58;0.75;;;;;;;10.91;100.00;98796.41;5186343;28;20104;-74
2021/10/21 03:47:13;;;;;;;3.92;0.98;;;;;;;10.85;100.00;98808.00;5198840;28;20059;-74
2021/10/21 03:49:44;;;;;;;3.78;0.80;;;;;;;10.77;100.00;98832.41;5198554;28;20085;-75
2021/10/21 03:52:14;;;;;;;4.78;0.50;;;;;;;10.69;100.00;98835.31;5199361;28;20022;-74
2021/10/21 03:54:46;;;;;;;3.38;0.73;;;;;;;10.63;100.00;98847.75;5199448;28;20075;-74
2021/10/21 03:57:17;;;;;;;2.80;0.65;;;;;;;10.57;100.00;98860.16;5199402;28;20033;-75
2021/10/21 03:59:47;;;;;;;4.70;0.75;;;;;;;10.52;100.00;98868.00;5197546;28;20030;-75
2021/10/21 04:02:18;;;;;;;4.40;0.65;;;;;;;10.49;100.00;98852.38;5186561;28;20033;-74
2021/10/21 04:04:48;;;;;;;3.40;0.55;;;;;;;10.46;100.00;98892.19;5199383;28;20075;-74
2021/10/21 04:07:19;;;;;;;3.45;0.95;;;;;;;10.37;100.00;98903.13;5199387;28;20022;-73
2021/10/21 04:09:49;;;;;;;14.13;5.50;;;;;;;10.28;100.00;98919.66;5199359;28;20421;-73
2021/10/21 04:12:19;;;;;;;6.70;1.60;;;;;;;10.24;100.00;98905.88;5199447;28;20029;-74
2021/10/21 04:14:50;;;;;;;94.57;33.33;;;;;;;10.15;100.00;98938.44;5214254;28;20112;-74
2021/10/21 04:17:20;;;;;;;34.45;6.30;;;;;;;10.07;100.00;98916.19;5199204;28;20025;-74
2021/10/21 04:19:51;;;;;;;19.23;4.45;;;;;;;10.07;100.00;98979.66;5198543;28;20126;-74
2021/10/21 04:22:21;;;;;;;12.60;1.33;;;;;;;9.98;100.00;98978.22;5199601;28;20033;-73
2021/10/21 04:24:52;;;;;;;11.90;1.70;;;;;;;9.87;100.00;99006.47;5198696;28;20018;-74
2021/10/21 04:27:22;;;;;;;13.23;1.88;;;;;;;9.73;100.00;99027.06;5198271;28;20415;-74
2021/10/21 04:29:53;;;;;;;15.02;2.28;;;;;;;9.69;100.00;99055.28;5203250;28;20029;-74
2021/10/21 04:32:23;;;;;;;15.38;2.05;;;;;;;9.58;100.00;99039.81;5203404;28;20528;-74
2021/10/21 04:34:54;;;;;;;16.13;2.30;;;;;;;9.53;100.00;99093.13;5203070;28;20519;-73
2021/10/21 04:37:25;;;;;;;21.88;3.17;;;;;;;9.48;100.00;99127.72;5202854;28;20129;-74
2021/10/21 04:39:55;;;;;;;26.27;2.50;;;;;;;9.46;100.00;99173.44;5202953;28;20136;-74
2021/10/21 04:42:27;;;;;;;16.13;3.17;;;;;;;9.42;100.00;99172.16;5203202;28;20055;-75
2021/10/21 04:44:58;;;;;;;17.90;2.25;;;;;;;9.44;100.00;99212.97;5201558;28;20391;-73
2021/10/21 04:47:29;;;;;;;13.60;2.35;;;;;;;9.49;100.00;99234.59;5202577;28;20022;-74
2021/10/21 04:49:59;;;;;;;25.52;2.50;;;;;;;9.43;100.00;99251.44;5201705;28;20083;-74
2021/10/21 04:52:30;;;;;;;25.05;3.33;;;;;;;9.41;100.00;99269.56;5202728;28;20025;-74
2021/10/21 04:55:01;;;;;;;16.50;2.30;;;;;;;9.44;100.00;99313.81;5200917;28;20081;-74
2021/10/21 04:57:32;;;;;;;17.45;3.35;;;;;;;9.45;100.00;99327.03;5217615;28;20087;-74
2021/10/21 05:00:04;;;;;;;16.15;2.45;;;;;;;9.38;100.00;99346.72;5201076;28;20034;-73
2021/10/21 05:02:35;;;;;;;20.25;2.25;;;;;;;9.42;100.00;99321.25;5202297;28;20021;-75
2021/10/21 05:05:05;;;;;;;29.60;3.70;;;;;;;9.40;100.00;99384.84;5201809;28;20521;-75
2021/10/21 05:07:36;;;;;;;26.73;3.45;;;;;;;9.42;100.00;99398.84;5200626;28;20415;-74
2021/10/21 05:10:07;;;;;;;25.13;3.17;;;;;;;9.39;100.00;99426.84;5201116;28;20017;-74
2021/10/21 05:12:38;;;;;;;20.17;2.88;;;;;;;9.43;100.00;99467.44;5201728;28;20080;-75
2021/10/21 05:15:09;;;;;;;46.50;4.63;;;;;;;9.41;100.00;99481.00;5201686;28;20032;-76
2021/10/21 05:17:39;;;;;;;19.58;2.95;;;;;;;9.41;100.00;99502.44;5202016;28;20433;-74
2021/10/21 05:20:11;;;;;;;19.05;4.85;;;;;;;9.39;100.00;99511.66;5201239;28;20028;-75
2021/10/21 05:22:41;;;;;;;19.70;2.67;;;;;;;9.36;100.00;99542.31;5201765;28;20036;-74
2021/10/21 05:25:12;;;;;;;30.67;3.05;;;;;;;9.33;100.00;99564.94;5201190;28;20033;-74
2021/10/21 05:27:42;;;;;;;20.65;2.30;;;;;;;9.30;100.00;99580.56;5201762;28;20025;-75
2021/10/21 05:30:13;;;;;;;20.25;2.50;;;;;;;9.23;100.00;99601.03;5201017;28;20021;-75
2021/10/21 05:32:43;;;;;;;19.27;2.78;;;;;;;9.19;100.00;99611.31;5200422;28;20028;-75
2021/10/21 05:35:14;;;;;;;13.70;1.95;;;;;;;9.14;100.00;99631.63;5199924;28;20029;-75
2021/10/21 05:37:44;;;;;;;16.08;1.98;;;;;;;9.06;100.00;99644.06;5216586;28;20175;-75
2021/10/21 05:40:15;;;;;;;15.25;2.25;;;;;;;8.95;100.00;99663.25;5198990;28;20029;-74
2021/10/21 05:42:45;;;;;;;4.88;1.40;;;;;;;8.89;100.00;99674.72;5216319;28;20127;-75
2021/10/21 05:45:16;;;;;;;5.10;0.90;;;;;;;8.74;100.00;99693.41;5200699;28;20057;-73
2021/10/21 05:47:47;;;;;;;7.65;1.13;;;;;;;8.61;100.00;99721.78;5201050;28;20074;-74
2021/10/21 05:50:17;;;;;;;8.50;2.65;;;;;;;8.48;100.00;99723.22;5200280;28;20109;-73
2021/10/21 05:52:48;;;;;;;6.45;1.67;;;;;;;8.37;100.00;99734.31;5200149;28;20036;-73
2021/10/21 05:55:18;;;;;;;3.38;1.50;;;;;;;8.40;100.00;99738.50;5200618;28;20083;-73
2021/10/21 05:57:48;;;;;;;12.40;2.38;;;;;;;8.35;100.00;99755.03;5201028;28;20059;-73
2021/10/21 06:00:19;;;;;;;6.68;1.45;;;;;;;8.32;100.00;99769.56;5200025;28;20163;-74
2021/10/21 06:02:49;;;;;;;7.32;1.52;;;;;;;8.29;100.00;99774.44;5200707;28;20037;-73
2021/10/21 06:05:22;;;;;;;9.55;1.42;;;;;;;8.27;100.00;99779.13;5200498;28;20025;-73
2021/10/21 06:07:54;;;;;;;22.73;3.00;;;;;;;8.27;100.00;99797.81;5200871;28;20557;-74
2021/10/21 06:10:24;;;;;;;9.80;1.92;;;;;;;8.30;100.00;99809.00;5200399;28;20394;-74
2021/10/21 06:12:57;;;;;;;18.83;3.08;;;;;;;8.38;100.00;99829.50;5201159;28;20060;-73
2021/10/21 06:15:28;;;;;;;18.00;3.28;;;;;;;8.45;100.00;99846.53;5200337;28;20107;-73
2021/10/21 06:18:02;;;;;;;11.55;2.50;;;;;;;8.53;100.00;99851.84;5201024;28;20060;-73
2021/10/21 06:20:34;;;;;;;27.95;4.18;;;;;;;8.61;100.00;99866.16;5200160;28;20260;-73
2021/10/21 06:23:05;;;;;;;21.00;4.50;;;;;;;8.69;100.00;99885.66;5201127;28;20076;-73
2021/10/21 06:25:35;;;;;;;20.52;3.25;;;;;;;8.80;100.00;99892.41;5200019;28;20025;-73
2021/10/21 06:28:06;;;;;;;15.90;3.05;;;;;;;8.86;100.00;99897.06;5200552;28;20026;-73
2021/10/21 06:30:37;;;;;;;18.17;3.20;;;;;;;8.98;100.00;99917.00;5200177;28;20017;-73
2021/10/21 06:33:08;;;;;;;19.08;3.80;;;;;;;8.97;100.00;99922.56;5200535;28;20061;-74
2021/10/21 06:35:41;;;;;;;28.52;2.97;;;;;;;8.95;100.00;99919.22;5199864;28;20025;-73
2021/10/21 06:38:14;;;;;;;19.25;3.25;;;;;;;8.96;100.00;99932.41;5200008;28;20453;-73
2021/10/21 06:40:44;;;;;;;25.20;3.50;;;;;;;8.94;100.00;99939.81;5199532;28;20061;-73
2021/10/21 06:43:15;;;;;;;17.92;2.60;;;;;;;8.93;100.00;99958.69;5200514;28;20171;-73
2021/10/21 06:45:45;;;;;;;21.42;3.22;;;;;;;8.98;100.00;99961.66;5200065;28;20084;-73
2021/10/21 06:48:16;;;;;;;20.95;3.13;;;;;;;8.97;100.00;99965.34;5200490;28;20451;-73
2021/10/21 06:50:46;;;;;;;14.45;4.22;;;;;;;9.03;100.00;99975.34;5198583;28;20160;-73
2021/10/21 06:53:18;;;;;;;17.83;2.17;;;;;;;9.12;100.00;99984.97;5200783;28;20024;-73
2021/10/21 06:55:49;;;;;;;20.30;4.10;;;;;;;9.16;100.00;99996.16;5199279;28;20028;-73
2021/10/21 06:58:19;;;;;;;20.73;3.63;;;;;;;9.21;100.00;100004.50;5201075;28;20029;-73
2021/10/21 07:00:50;;;;;;;16.42;2.30;;;;;;;9.21;100.00;100028.59;5192509;28;20026;-73
2021/10/21 07:03:21;;;;;;;22.95;3.20;;;;;;;9.26;100.00;100042.25;5194020;28;20033;-73
2021/10/21 07:05:53;;;;;;;14.63;2.80;;;;;;;9.31;100.00;100046.06;5199938;28;20025;-72
2021/10/21 07:08:25;;;;;;;15.70;2.22;;;;;;;9.40;100.00;100070.13;5199925;28;20030;-73
2021/10/21 07:10:57;;;;;;;12.05;2.17;;;;;;;9.51;100.00;100067.84;5198269;28;20025;-72
2021/10/21 07:13:28;;;;;;;11.55;2.20;;;;;;;9.59;100.00;100085.72;5199389;28;20056;-72
2021/10/21 07:15:58;;;;;;;13.93;2.38;;;;;;;9.64;100.00;100085.16;5200691;28;20036;-73
2021/10/21 07:18:29;;;;;;;16.15;2.83;;;;;;;9.67;100.00;100093.69;5199857;28;20501;-74
2021/10/21 07:21:00;;;;;;;8.82;2.28;;;;;;;9.71;100.00;100119.09;5199509;28;20028;-74
2021/10/21 07:23:30;;;;;;;19.60;2.47;;;;;;;9.71;100.00;100121.78;5199543;28;20025;-74
2021/10/21 07:26:01;;;;;;;14.35;2.40;;;;;;;9.72;100.00;100130.66;5199306;28;20026;-74
2021/10/21 07:28:32;;;;;;;13.75;2.60;;;;;;;9.77;100.00;100136.31;5199591;28;20100;-73
2021/10/21 07:31:02;;;;;;;12.63;3.00;;;;;;;9.98;100.00;100136.47;5198942;28;20021;-73
2021/10/21 07:33:33;;;;;;;13.15;2.83;;;;;;;10.26;100.00;100157.41;5199266;28;20108;-74
2021/10/21 07:36:03;;;;;;;14.25;2.28;;;;;;;10.35;100.00;100167.03;5198909;28;20065;-73
2021/10/21 07:38:34;;;;;;;13.20;2.83;;;;;;;10.35;100.00;100183.13;5197681;28;20038;-74
2021/10/21 07:41:04;;;;;;;20.58;2.50;;;;;;;10.48;100.00;100177.13;5197544;28;20053;-74
2021/10/21 07:43:37;;;;;;;18.00;2.90;;;;;;;10.50;100.00;100184.00;5199053;28;20021;-73
2021/10/21 07:46:07;;;;;;;11.23;2.65;;;;;;;10.65;100.00;100192.06;5198349;28;20471;-73
2021/10/21 07:48:38;;;;;;;9.48;1.77;;;;;;;10.59;100.00;100193.63;5197901;28;20033;-74
2021/10/21 07:51:08;;;;;;;11.55;2.13;;;;;;;10.76;100.00;100209.56;5198023;28;20120;-74
2021/10/21 07:53:39;;;;;;;17.67;3.08;;;;;;;10.99;100.00;100217.53;5197874;28;20379;-75
2021/10/21 07:56:09;;;;;;;16.80;2.95;;;;;;;11.36;100.00;100216.63;5197654;28;20164;-75
2021/10/21 07:58:40;;;;;;;12.55;1.90;;;;;;;11.54;100.00;100216.22;5198892;28;20022;-75
2021/10/21 08:01:10;;;;;;;12.02;1.73;;;;;;;11.95;100.00;100227.28;5197774;28;20555;-76
2021/10/21 08:03:41;;;;;;;8.85;1.88;;;;;;;12.00;100.00;100234.75;5205346;28;20143;-76
2021/10/21 08:06:12;;;;;;;10.88;1.75;;;;;;;12.20;100.00;100230.44;5205232;28;20548;-75
2021/10/21 08:08:43;;;;;;;7.32;1.40;;;;;;;12.27;100.00;100225.13;5220764;28;20351;-75
2021/10/21 08:11:14;;;;;;;10.98;1.63;;;;;;;12.55;100.00;100234.06;5205117;28;20033;-75
2021/10/21 08:13:45;;;;;;;11.52;1.98;;;;;;;12.74;100.00;100245.19;5205703;28;20479;-76
2021/10/21 08:16:16;;;;;;;9.18;1.35;;;;;;;12.53;100.00;100244.19;5205164;28;20028;-75
2021/10/21 08:18:47;;;;;;;8.48;1.95;;;;;;;12.40;100.00;100246.78;5205796;28;20537;-75
2021/10/21 08:21:18;;;;;;;6.43;2.13;;;;;;;11.82;100.00;100257.53;5204997;28;20371;-75
2021/10/21 08:23:53;;;;;;;8.50;1.75;;;;;;;11.45;100.00;100269.22;5205846;28;20041;-74
2021/10/21 08:26:24;;;;;;;12.02;2.13;;;;;;;11.31;100.00;100256.63;5205215;28;20044;-75
2021/10/21 08:28:56;;;;;;;28.48;17.00;;;;;;;11.04;100.00;100263.44;5205156;28;20025;-75
2021/10/21 08:31:27;;;;;;;18.45;2.35;;;;;;;10.91;100.00;100265.94;5205628;28;20414;-74
2021/10/21 08:33:57;;;;;;;6.93;1.60;;;;;;;11.24;100.00;100279.84;5205765;28;20044;-74
2021/10/21 08:36:28;;;;;;;11.05;2.55;;;;;;;11.69;100.00;100294.94;5205569;28;20017;-75
2021/10/21 08:38:59;;;;;;;9.07;2.55;;;;;;;12.10;100.00;100297.97;5205415;28;20022;-74
2021/10/21 08:41:29;;;;;;;12.30;1.00;;;;;;;11.98;100.00;100290.56;5204569;28;20025;-75
2021/10/21 08:44:00;;;;;;;10.15;1.85;;;;;;;11.95;100.00;100307.06;5205478;28;20098;-75
2021/10/21 08:46:31;;;;;;;8.52;1.17;;;;;;;11.80;100.00;100312.47;5205499;28;20060;-75
2021/10/21 08:49:03;;;;;;;7.97;1.27;;;;;;;11.72;100.00;100309.88;5205405;28;20018;-75
2021/10/21 08:51:34;;;;;;;9.10;1.35;;;;;;;11.48;100.00;100319.88;5204749;28;20734;-74
2021/10/21 08:54:04;;;;;;;6.40;1.17;;;;;;;11.44;100.00;100320.41;5205865;28;20064;-75
2021/10/21 08:56:35;;;;;;;13.25;2.17;;;;;;;11.31;100.00;100321.91;5205436;28;20116;-74
2021/10/21 08:59:06;;;;;;;10.32;2.53;;;;;;;11.19;100.00;100335.94;5220376;28;20032;-74
2021/10/21 09:01:43;;;;;;;11.73;3.25;;;;;;;11.09;100.00;100331.69;5204293;28;20067;-74
2021/10/21 09:04:24;;;;;;;7.40;3.05;;;;;;;10.99;100.00;100339.13;5205262;28;20030;-74
2021/10/21 09:09:28;;;;;;;11.52;1.98;;;;;;;10.73;100.00;100336.00;5205365;28;20471;-75
2021/10/21 09:12:04;;;;;;;5.45;1.50;;;;;;;10.72;100.00;100342.41;5204794;28;20029;-75
2021/10/21 09:14:38;;;;;;;14.25;3.38;;;;;;;10.77;100.00;100340.00;5201675;28;20025;-75
2021/10/21 09:17:11;;;;;;;10.45;2.40;;;;;;;10.73;100.00;100346.75;5201221;28;20029;-77
2021/10/21 09:19:42;;;;;;;8.43;2.03;;;;;;;10.69;100.00;100340.91;5201336;28;20325;-75
2021/10/21 09:22:21;;;;;;;11.07;2.00;;;;;;;10.66;100.00;100356.53;5201451;28;20112;-75
2021/10/21 09:24:54;;;;;;;7.30;1.80;;;;;;;10.64;100.00;100370.09;5201414;28;20030;-75
2021/10/21 09:27:25;;;;;;;16.27;1.85;;;;;;;10.50;100.00;100369.03;5201425;28;20518;-76
2021/10/21 09:29:57;;;;;;;10.05;1.98;;;;;;;10.36;100.00;100369.78;5201552;28;20029;-76
2021/10/21 09:32:36;;;;;;;17.17;2.53;;;;;;;10.29;100.00;100374.19;5201617;28;20387;-75
2021/10/21 09:35:08;;;;;;;11.68;2.72;;;;;;;10.16;100.00;100380.09;5202898;28;20052;-75
2021/10/21 09:37:41;;;;;;;12.25;2.22;;;;;;;10.04;100.00;100389.50;5201033;28;20032;-76
2021/10/21 09:40:15;;;;;;;14.73;2.15;;;;;;;9.89;100.00;100394.78;5201025;28;20026;-75
2021/10/21 09:42:54;;;;;;;13.63;3.22;;;;;;;9.87;100.00;100402.13;5196422;28;20029;-76
2021/10/21 09:45:41;;;;;;;31.15;9.60;;;;;;;9.75;100.00;100401.69;5194129;28;20029;-76
2021/10/21 09:48:18;;;;;;;14.10;3.63;;;;;;;9.78;100.00;100408.53;5201542;28;20056;-75
2021/10/21 09:50:49;;;;;;;11.57;2.17;;;;;;;9.75;100.00;100420.44;5201354;28;20025;-76
2021/10/21 09:53:23;;;;;;;23.45;10.70;;;;;;;9.63;100.00;100420.94;5201523;28;20033;-74
2021/10/21 09:56:01;;;;;;;15.27;4.13;;;;;;;9.52;100.00;100432.84;5201295;28;20037;-74
2021/10/21 09:58:34;;;;;;;15.73;3.30;;;;;;;9.49;100.00;100425.19;5201166;28;20021;-75
2021/10/21 10:01:08;;;;;;;15.05;2.80;;;;;;;9.51;100.00;100425.84;5192126;28;20037;-75
2021/10/21 10:03:42;;;;;;;14.73;3.92;;;;;;;9.56;100.00;100437.69;5212309;28;20109;-75
2021/10/21 10:06:17;;;;;;;12.27;2.60;;;;;;;9.62;100.00;100428.16;5200767;28;20044;-75
2021/10/21 10:08:47;;;;;;;19.83;3.17;;;;;;;9.71;100.00;100424.44;5200412;28;20059;-75
2021/10/21 10:11:19;;;;;;;11.45;2.08;;;;;;;9.74;100.00;100424.13;5200495;28;20506;-75
2021/10/21 10:13:51;;;;;;;10.55;2.28;;;;;;;10.00;100.00;100426.56;5200581;28;20029;-75
2021/10/21 10:16:23;;;;;;;17.05;2.97;;;;;;;10.38;100.00;100442.84;5200565;28;20037;-75
2021/10/21 10:18:54;;;;;;;11.23;2.40;;;;;;;10.59;100.00;100435.03;5199862;28;20052;-74
2021/10/21 10:21:32;;;;;;;22.52;2.58;;;;;;;10.63;100.00;100443.56;5200549;28;20119;-76
2021/10/21 10:24:12;;;;;;;12.85;2.95;;;;;;;10.61;100.00;100437.53;5200596;28;20017;-75
2021/10/21 10:26:49;;;;;;;7.30;2.13;;;;;;;10.47;100.00;100435.59;5199236;28;20040;-75
2021/10/21 10:29:32;;;;;;;7.93;1.70;;;;;;;10.37;100.00;100444.69;5199922;28;20025;-75
2021/10/21 10:32:06;;;;;;;9.68;1.67;;;;;;;10.26;100.00;100461.16;5200851;28;20049;-75
2021/10/21 10:34:36;;;;;;;9.98;2.50;;;;;;;10.47;100.00;100468.63;5200002;28;20116;-75
2021/10/21 10:37:13;;;;;;;9.98;2.53;;;;;;;10.81;100.00;100454.84;5200576;28;20148;-75
2021/10/21 10:39:52;;;;;;;10.43;2.33;;;;;;;11.12;100.00;100462.03;5199473;28;20554;-75
2021/10/21 10:42:29;;;;;;;6.90;1.60;;;;;;;11.15;100.00;100473.25;5200526;28;20337;-75
2021/10/21 10:45:01;;;;;;;12.50;2.20;;;;;;;11.04;100.00;100480.88;5200135;28;20262;-75
2021/10/21 10:47:47;;;;;;;25.00;8.93;;;;;;;10.92;100.00;100476.94;5200293;28;20483;-75
2021/10/21 10:50:25;;;;;;;24.80;8.48;;;;;;;11.01;100.00;100476.69;5199131;28;20036;-75
2021/10/21 10:53:03;;;;;;;17.10;3.40;;;;;;;11.23;100.00;100475.03;5199903;28;20021;-77
2021/10/21 10:55:46;;;;;;;15.20;2.65;;;;;;;11.45;100.00;100483.28;5199688;28;20536;-74
2021/10/21 10:58:25;;;;;;;38.80;12.95;;;;;;;11.61;100.00;100488.50;5199730;28;20055;-76
2021/10/21 11:00:58;;;;;;;9.55;1.92;;;;;;;11.84;100.00;100488.47;5199245;28;20018;-75
2021/10/21 11:03:35;;;;;;;11.60;6.65;;;;;;;12.08;100.00;100495.44;5199694;28;20505;-75
2021/10/21 11:06:08;;;;;;;15.38;3.42;;;;;;;12.18;100.00;100496.84;5199710;28;20040;-75
2021/10/21 11:08:46;;;;;;;6.95;1.75;;;;;;;12.03;100.00;100489.78;5199481;28;20035;-75
2021/10/21 11:11:36;;;;;;;15.60;3.60;;;;;;;11.82;100.00;100515.53;5199377;28;20025;-75
2021/10/21 11:14:13;;;;;;;8.05;1.40;;;;;;;11.83;100.00;100543.25;5188027;28;20048;-74
2021/10/21 11:16:46;;;;;;;5.03;1.35;;;;;;;11.24;100.00;100568.00;5199373;28;20031;-75
2021/10/21 11:19:36;;;;;;;6.47;1.10;;;;;;;10.36;100.00;100585.16;5198700;28;20025;-75
2021/10/21 11:22:08;;;;;;;3.58;0.85;;;;;;;9.83;100.00;100586.50;5199581;28;20071;-75
2021/10/21 11:24:56;;;;;;;8.80;1.20;;;;;;;9.52;100.00;100591.69;5199615;28;20056;-75
2021/10/21 11:27:39;;;;;;;12.80;1.77;;;;;;;9.38;100.00;100586.13;5199338;28;20052;-75
2021/10/21 11:30:12;;;;;;;12.70;2.25;;;;;;;9.21;100.00;100599.50;5199135;28;20475;-75
2021/10/21 11:32:43;;;;;;;13.45;2.15;;;;;;;9.20;100.00;100592.47;5199324;28;20025;-75
2021/10/21 11:35:18;;;;;;;15.15;4.60;;;;;;;9.34;100.00;100597.19;5199319;28;20036;-75
2021/10/21 11:37:50;;;;;;;7.65;1.50;;;;;;;9.40;100.00;100603.72;5198755;28;20026;-75
2021/10/21 11:40:35;;;;;;;6.93;1.20;;;;;;;9.47;100.00;100604.72;5198461;28;20030;-75
2021/10/21 11:43:08;;;;;;;7.25;1.83;;;;;;;9.56;100.00;100602.91;5199152;28;20479;-74